createdAt,value
2018-06-23T00:02:12.482Z,6.20
2018-06-23T00:04:40.992Z,6.10
2018-06-23T00:07:10.147Z,6.10
2018-06-23T00:09:39.617Z,6.00
2018-06-23T00:12:08.444Z,6.00
2018-06-23T00:14:37.714Z,5.90
2018-06-23T00:17:06.254Z,5.80
2018-06-23T00:19:34.807Z,5.70
2018-06-23T00:24:36.259Z,5.70
2018-06-23T00:27:05.007Z,5.60
2018-06-23T00:29:33.463Z,5.50
2018-06-23T00:32:02.120Z,5.40
2018-06-23T00:34:30.834Z,5.40
2018-06-23T00:36:59.419Z,5.40
2018-06-23T00:39:28.108Z,5.40
2018-06-23T00:41:56.612Z,5.30
2018-06-23T00:44:25.158Z,5.30
2018-06-23T00:46:53.611Z,5.30
2018-06-23T00:49:22.199Z,5.20
2018-06-23T00:51:51.023Z,5.00
2018-06-23T00:54:19.600Z,4.90
2018-06-23T00:56:48.100Z,5.00
2018-06-23T00:59:27.893Z,5.10
2018-06-23T01:01:56.383Z,5.10
2018-06-23T01:04:24.826Z,5.10
2018-06-23T01:06:53.316Z,5.00
2018-06-23T01:09:21.771Z,5.00
2018-06-23T01:11:50.392Z,5.00
2018-06-23T01:14:19.847Z,4.90
2018-06-23T01:16:48.360Z,5.00
2018-06-23T01:21:45.287Z,4.80
2018-06-23T01:24:13.789Z,4.80
2018-06-23T01:26:42.464Z,4.80
2018-06-23T01:29:11.307Z,4.80
2018-06-23T01:31:39.818Z,4.80
2018-06-23T01:34:08.359Z,4.80
2018-06-23T01:36:36.903Z,4.70
2018-06-23T01:39:08.491Z,4.50
2018-06-23T01:41:36.968Z,4.40
2018-06-23T01:44:06.228Z,4.50
2018-06-23T01:46:35.229Z,4.50
2018-06-23T01:49:04.413Z,4.60
2018-06-23T01:51:33.202Z,4.60
2018-06-23T01:54:02.078Z,4.60
2018-06-23T01:56:30.594Z,4.60
2018-06-23T01:58:59.070Z,4.60
2018-06-23T02:01:27.625Z,4.50
2018-06-23T02:03:56.635Z,4.40
2018-06-23T02:06:25.106Z,4.40
2018-06-23T02:08:53.786Z,4.40
2018-06-23T02:11:22.621Z,4.40
2018-06-23T02:14:00.211Z,4.40
2018-06-23T02:16:34.127Z,4.40
2018-06-23T02:19:07.964Z,4.30
2018-06-23T02:21:41.860Z,4.30
2018-06-23T02:24:15.632Z,4.30
2018-06-23T02:26:49.453Z,4.30
2018-06-23T02:29:23.201Z,4.20
2018-06-23T02:31:56.928Z,4.20
2018-06-23T02:34:30.857Z,4.20
2018-06-23T02:36:59.409Z,4.20
2018-06-23T02:39:27.868Z,4.00
2018-06-23T02:41:56.365Z,4.00
2018-06-23T02:44:24.840Z,4.00
2018-06-23T02:46:53.421Z,4.00
2018-06-23T02:49:22.714Z,4.00
2018-06-23T02:51:51.333Z,4.00
2018-06-23T02:54:19.924Z,4.00
2018-06-23T02:56:48.616Z,4.00
2018-06-23T02:59:21.388Z,4.00
2018-06-23T03:01:50.736Z,3.90
2018-06-23T03:04:20.082Z,3.90
2018-06-23T03:06:48.716Z,3.90
2018-06-23T03:09:17.204Z,3.90
2018-06-23T03:11:45.727Z,3.80
2018-06-23T03:14:14.457Z,3.80
2018-06-23T03:16:42.945Z,3.80
2018-06-23T03:19:11.563Z,3.70
2018-06-23T03:21:40.105Z,3.70
2018-06-23T03:24:08.620Z,3.60
2018-06-23T03:26:37.080Z,3.50
2018-06-23T03:29:06.466Z,3.70
2018-06-23T03:31:34.947Z,3.80
2018-06-23T03:34:04.072Z,3.80
2018-06-23T03:36:32.599Z,3.80
2018-06-23T03:39:01.173Z,3.70
2018-06-23T03:41:29.634Z,3.60
2018-06-23T03:43:58.127Z,3.60
2018-06-23T03:46:27.169Z,3.60
2018-06-23T03:48:56.249Z,3.60
2018-06-23T03:51:24.731Z,3.60
2018-06-23T03:53:53.807Z,3.60
2018-06-23T03:56:22.909Z,3.60
2018-06-23T03:58:51.715Z,3.70
2018-06-23T04:01:20.267Z,3.70
2018-06-23T04:03:48.776Z,3.70
2018-06-23T04:06:17.244Z,3.70
2018-06-23T04:08:45.826Z,3.70
2018-06-23T04:11:14.315Z,3.80
2018-06-23T04:13:42.871Z,3.80
2018-06-23T04:16:12.520Z,3.80
2018-06-23T04:18:45.202Z,3.80
2018-06-23T04:21:14.051Z,3.80
2018-06-23T04:23:42.523Z,3.80
2018-06-23T04:26:11.059Z,3.80
2018-06-23T04:28:39.579Z,3.80
2018-06-23T04:31:08.213Z,3.90
2018-06-23T04:33:36.683Z,3.90
2018-06-23T04:36:05.177Z,4.00
2018-06-23T04:38:33.630Z,4.10
2018-06-23T04:41:02.275Z,4.20
2018-06-23T04:43:30.924Z,4.40
2018-06-23T04:45:59.635Z,4.40
2018-06-23T04:48:28.301Z,4.50
2018-06-23T04:50:56.811Z,4.60
2018-06-23T04:53:25.425Z,4.70
2018-06-23T04:55:53.959Z,4.70
2018-06-23T04:58:22.432Z,4.90
2018-06-23T05:00:50.963Z,5.00
2018-06-23T05:03:20.201Z,5.10
2018-06-23T05:05:48.643Z,5.20
2018-06-23T05:08:17.240Z,5.40
2018-06-23T05:10:45.899Z,5.50
2018-06-23T05:13:14.449Z,5.70
2018-06-23T05:15:43.008Z,5.80
2018-06-23T05:18:13.028Z,5.90
2018-06-23T05:20:41.542Z,6.10
2018-06-23T05:23:09.975Z,6.30
2018-06-23T05:25:38.804Z,6.50
2018-06-23T05:28:07.338Z,6.70
2018-06-23T05:30:35.874Z,7.20
2018-06-23T05:33:04.615Z,7.40
2018-06-23T05:35:36.255Z,7.40
2018-06-23T05:38:04.946Z,7.50
2018-06-23T05:40:33.536Z,7.80
2018-06-23T05:43:02.034Z,7.90
2018-06-23T05:45:30.939Z,8.00
2018-06-23T05:48:00.052Z,8.20
2018-06-23T05:50:28.589Z,8.30
2018-06-23T05:52:57.218Z,8.60
2018-06-23T05:55:26.071Z,8.70
2018-06-23T05:57:54.686Z,8.90
2018-06-23T06:00:23.420Z,9.00
2018-06-23T06:02:51.866Z,9.20
2018-06-23T06:05:20.380Z,9.20
2018-06-23T06:07:48.787Z,9.40
2018-06-23T06:10:17.388Z,9.60
2018-06-23T06:12:45.906Z,9.80
2018-06-23T06:15:14.350Z,10.00
2018-06-23T06:17:42.960Z,10.10
2018-06-23T06:20:14.555Z,10.30
2018-06-23T06:22:44.279Z,10.40
2018-06-23T06:25:13.716Z,10.50
2018-06-23T06:27:42.249Z,10.70
2018-06-23T06:30:11.694Z,10.80
2018-06-23T06:32:40.431Z,10.80
2018-06-23T06:35:08.956Z,10.90
2018-06-23T06:37:37.634Z,11.10
2018-06-23T06:40:06.921Z,11.20
2018-06-23T06:42:35.693Z,11.20
2018-06-23T06:45:04.923Z,11.20
2018-06-23T06:47:33.615Z,11.30
2018-06-23T06:50:02.574Z,11.40
2018-06-23T06:52:31.171Z,11.50
2018-06-23T06:54:59.773Z,11.70
2018-06-23T06:57:28.284Z,11.70
2018-06-23T06:59:56.994Z,11.70
2018-06-23T07:02:25.654Z,11.80
2018-06-23T07:04:54.180Z,11.90
2018-06-23T07:07:22.780Z,12.00
2018-06-23T07:09:51.328Z,12.00
2018-06-23T07:12:19.763Z,12.10
2018-06-23T07:14:48.270Z,12.10
2018-06-23T07:17:16.699Z,12.30
2018-06-23T07:19:46.044Z,12.30
2018-06-23T07:22:14.844Z,12.40
2018-06-23T07:24:43.322Z,12.40
2018-06-23T07:27:11.825Z,12.60
2018-06-23T07:29:40.390Z,12.80
2018-06-23T07:32:08.885Z,12.90
2018-06-23T07:34:37.418Z,13.20
2018-06-23T07:37:05.784Z,13.40
2018-06-23T07:39:34.213Z,13.50
2018-06-23T07:42:02.696Z,13.60
2018-06-23T07:44:31.517Z,14.00
2018-06-23T07:47:00.255Z,14.20
2018-06-23T07:49:28.754Z,14.50
2018-06-23T07:51:57.217Z,14.30
2018-06-23T07:54:26.518Z,14.40
2018-06-23T07:56:55.071Z,14.80
2018-06-23T07:59:23.546Z,14.80
2018-06-23T08:01:52.548Z,14.70
2018-06-23T08:04:21.072Z,14.30
2018-06-23T08:06:49.715Z,14.40
2018-06-23T08:09:18.410Z,14.20
2018-06-23T08:11:47.026Z,14.10
2018-06-23T08:14:15.515Z,13.80
2018-06-23T08:16:44.186Z,13.70
2018-06-23T08:19:14.252Z,13.50
2018-06-23T08:21:43.018Z,13.60
2018-06-23T08:24:11.564Z,13.80
2018-06-23T08:26:40.505Z,14.30
2018-06-23T08:29:08.818Z,14.70
2018-06-23T08:31:37.483Z,15.10
2018-06-23T08:34:06.081Z,15.70
2018-06-23T08:36:34.527Z,16.10
2018-06-23T08:39:04.523Z,16.00
2018-06-23T08:41:33.058Z,16.40
2018-06-23T08:44:01.544Z,16.40
2018-06-23T08:46:30.007Z,16.30
2018-06-23T08:48:58.739Z,16.20
2018-06-23T08:51:27.190Z,15.80
2018-06-23T08:53:55.676Z,15.50
2018-06-23T08:56:24.561Z,15.10
2018-06-23T08:58:53.077Z,15.10
2018-06-23T09:03:50.022Z,15.70
2018-06-23T09:06:18.498Z,15.80
2018-06-23T09:08:47.025Z,16.20
2018-06-23T09:11:15.492Z,16.30
2018-06-23T09:13:44.075Z,16.30
2018-06-23T09:16:12.495Z,16.00
2018-06-23T09:18:41.068Z,15.80
2018-06-23T09:21:10.286Z,16.10
2018-06-23T09:23:38.789Z,16.30
2018-06-23T09:26:07.300Z,16.40
2018-06-23T09:28:35.771Z,16.40
2018-06-23T09:31:04.487Z,16.70
2018-06-23T09:33:32.973Z,17.00
2018-06-23T09:36:01.735Z,16.90
2018-06-23T09:38:30.559Z,16.60
2018-06-23T09:40:59.185Z,16.30
2018-06-23T09:43:27.712Z,15.70
2018-06-23T09:45:56.209Z,15.40
2018-06-23T09:48:24.766Z,15.30
2018-06-23T09:50:53.273Z,15.20
2018-06-23T09:53:21.727Z,15.30
2018-06-23T09:55:50.371Z,15.50
2018-06-23T09:58:19.325Z,15.90
2018-06-23T10:00:48.036Z,16.20
2018-06-23T10:03:16.619Z,16.70
2018-06-23T10:05:45.044Z,16.90
2018-06-23T10:08:13.775Z,17.40
2018-06-23T10:10:42.323Z,17.70
2018-06-23T10:13:10.775Z,17.30
2018-06-23T10:15:39.268Z,16.90
2018-06-23T10:18:07.897Z,16.60
2018-06-23T10:20:36.381Z,16.20
2018-06-23T10:23:05.145Z,16.20
2018-06-23T10:25:33.600Z,16.20
2018-06-23T10:28:02.288Z,16.20
2018-06-23T10:30:31.084Z,16.20
2018-06-23T10:32:59.630Z,16.40
2018-06-23T10:35:28.101Z,16.50
2018-06-23T10:37:56.630Z,16.90
2018-06-23T10:40:25.105Z,17.50
2018-06-23T10:42:53.702Z,18.00
2018-06-23T10:45:22.564Z,18.40
2018-06-23T10:47:51.067Z,18.10
2018-06-23T10:50:19.809Z,17.90
2018-06-23T10:52:48.612Z,17.70
2018-06-23T10:55:17.210Z,17.90
2018-06-23T10:57:46.079Z,17.90
2018-06-23T11:02:42.930Z,18.10
2018-06-23T11:05:11.631Z,18.20
2018-06-23T11:07:40.129Z,18.50
2018-06-23T11:10:08.637Z,19.00
2018-06-23T11:12:37.079Z,19.30
2018-06-23T11:15:05.819Z,18.70
2018-06-23T11:17:34.431Z,18.20
2018-06-23T11:20:03.140Z,17.70
2018-06-23T11:22:32.421Z,17.70
2018-06-23T11:25:01.051Z,18.30
2018-06-23T11:27:29.529Z,18.90
2018-06-23T11:29:58.190Z,19.50
2018-06-23T11:32:31.099Z,19.40
2018-06-23T11:34:59.768Z,18.90
2018-06-23T11:37:28.352Z,18.80
2018-06-23T11:39:56.895Z,18.40
2018-06-23T11:42:25.593Z,18.40
2018-06-23T11:44:54.272Z,19.20
2018-06-23T11:47:22.852Z,20.00
2018-06-23T11:49:51.640Z,20.30
2018-06-23T11:52:20.258Z,20.30
2018-06-23T11:54:48.709Z,20.40
2018-06-23T11:57:17.178Z,20.50
2018-06-23T11:59:46.079Z,20.40
2018-06-23T12:02:14.941Z,20.50
2018-06-23T12:04:43.682Z,20.20
2018-06-23T12:07:12.949Z,20.10
2018-06-23T12:09:41.568Z,20.10
2018-06-23T12:12:11.203Z,20.00
2018-06-23T12:14:39.728Z,19.80
2018-06-23T12:17:08.413Z,20.20
2018-06-23T12:19:37.046Z,20.40
2018-06-23T12:22:05.664Z,20.50
2018-06-23T12:24:34.264Z,20.20
2018-06-23T12:27:02.742Z,20.00
2018-06-23T12:29:31.464Z,20.10
2018-06-23T12:32:00.307Z,20.00
2018-06-23T12:34:29.077Z,20.10
2018-06-23T12:36:57.520Z,20.60
2018-06-23T12:39:26.004Z,20.80
2018-06-23T12:41:54.464Z,21.20
2018-06-23T12:44:22.987Z,20.80
2018-06-23T12:46:51.669Z,20.60
2018-06-23T12:49:20.352Z,20.10
2018-06-23T12:51:48.841Z,20.50
2018-06-23T12:54:17.391Z,20.10
2018-06-23T12:56:46.420Z,20.00
2018-06-23T12:59:14.855Z,19.70
2018-06-23T13:01:43.346Z,20.00
2018-06-23T13:04:11.828Z,20.30
2018-06-23T13:06:40.356Z,20.70
2018-06-23T13:09:10.966Z,20.70
2018-06-23T13:11:39.651Z,21.00
2018-06-23T13:14:08.159Z,20.70
2018-06-23T13:16:36.615Z,20.80
2018-06-23T13:19:05.101Z,20.90
2018-06-23T13:21:33.572Z,21.00
2018-06-23T13:24:02.151Z,20.80
2018-06-23T13:26:30.720Z,21.10
2018-06-23T13:28:59.133Z,21.10
2018-06-23T13:31:28.571Z,21.00
2018-06-23T13:33:57.136Z,20.80
2018-06-23T13:36:25.794Z,20.60
2018-06-23T13:38:54.448Z,21.30
2018-06-23T13:41:23.066Z,22.10
2018-06-23T13:43:51.840Z,22.30
2018-06-23T13:46:20.315Z,21.40
2018-06-23T13:48:48.977Z,21.10
2018-06-23T13:51:17.599Z,21.80
2018-06-23T13:53:46.159Z,21.80
2018-06-23T13:56:14.864Z,22.00
2018-06-23T13:58:43.675Z,22.60
2018-06-23T14:03:40.356Z,23.00
2018-06-23T14:06:08.877Z,22.70
2018-06-23T14:08:37.710Z,24.30
2018-06-23T14:11:06.267Z,26.50
2018-06-23T14:13:35.450Z,26.90
2018-06-23T14:16:04.120Z,26.20
2018-06-23T14:18:32.763Z,26.40
2018-06-23T14:21:01.492Z,26.90
2018-06-23T14:23:29.986Z,25.90
2018-06-23T14:25:58.568Z,26.00
2018-06-23T14:28:27.099Z,26.30
2018-06-23T14:30:55.667Z,26.40
2018-06-23T14:33:24.292Z,25.80
2018-06-23T14:35:52.884Z,25.60
2018-06-23T14:38:22.340Z,26.40
2018-06-23T14:40:50.906Z,27.00
2018-06-23T14:43:19.370Z,27.20
2018-06-23T14:45:47.866Z,26.90
2018-06-23T14:50:44.656Z,27.00
2018-06-23T14:53:13.218Z,26.90
2018-06-23T14:55:41.806Z,26.70
2018-06-23T14:58:10.328Z,27.00
2018-06-23T15:00:39.134Z,27.40
2018-06-23T15:03:07.672Z,26.50
2018-06-23T15:05:36.229Z,26.80
2018-06-23T15:08:16.023Z,27.00
2018-06-23T15:10:56.163Z,27.00
2018-06-23T15:13:24.842Z,26.90
2018-06-23T15:15:53.623Z,27.50
2018-06-23T15:18:22.110Z,27.20
2018-06-23T15:20:50.923Z,27.80
2018-06-23T15:23:19.450Z,27.80
2018-06-23T15:25:48.156Z,27.30
2018-06-23T15:28:16.676Z,27.90
2018-06-23T15:30:45.244Z,27.80
2018-06-23T15:33:13.823Z,27.10
2018-06-23T15:35:42.391Z,27.40
2018-06-23T15:38:10.993Z,26.70
2018-06-23T15:40:39.681Z,26.80
2018-06-23T15:43:08.163Z,27.40
2018-06-23T15:45:36.646Z,27.90
2018-06-23T15:48:05.186Z,26.80
2018-06-23T15:50:33.691Z,26.60
2018-06-23T15:53:02.200Z,26.90
2018-06-23T15:55:30.725Z,27.50
2018-06-23T15:57:59.279Z,27.60
2018-06-23T16:00:27.803Z,27.10
2018-06-23T16:02:56.480Z,27.20
2018-06-23T16:05:25.042Z,28.20
2018-06-23T16:07:53.751Z,28.80
2018-06-23T16:10:24.070Z,29.10
2018-06-23T16:12:53.272Z,29.90
2018-06-23T16:15:21.872Z,29.90
2018-06-23T16:17:50.478Z,29.60
2018-06-23T16:20:19.015Z,29.60
2018-06-23T16:22:47.932Z,29.90
2018-06-23T16:25:16.907Z,29.70
2018-06-23T16:27:45.379Z,29.10
2018-06-23T16:30:13.964Z,28.20
2018-06-23T16:32:42.541Z,28.50
2018-06-23T16:35:11.335Z,29.00
2018-06-23T16:37:39.591Z,28.20
2018-06-23T16:40:08.047Z,28.20
2018-06-23T16:42:36.664Z,27.60
2018-06-23T16:45:05.882Z,26.60
2018-06-23T16:47:34.366Z,27.20
2018-06-23T16:50:03.440Z,28.30
2018-06-23T16:52:32.314Z,27.50
2018-06-23T16:55:00.733Z,27.10
2018-06-23T16:57:29.378Z,26.00
2018-06-23T16:59:57.850Z,25.20
2018-06-23T17:02:26.272Z,23.90
2018-06-23T17:04:54.741Z,23.20
2018-06-23T17:07:23.172Z,23.40
2018-06-23T17:09:51.624Z,22.80
2018-06-23T17:12:20.170Z,22.40
2018-06-23T17:14:48.898Z,23.20
2018-06-23T17:17:17.407Z,24.00
2018-06-23T17:19:45.987Z,24.60
2018-06-23T17:22:14.702Z,24.70
2018-06-23T17:24:43.389Z,24.40
2018-06-23T17:27:11.909Z,24.50
2018-06-23T17:29:40.505Z,25.50
2018-06-23T17:32:08.956Z,25.70
2018-06-23T17:34:37.631Z,25.40
2018-06-23T17:37:06.253Z,25.60
2018-06-23T17:39:34.759Z,24.50
2018-06-23T17:42:03.612Z,24.80
2018-06-23T17:44:32.290Z,24.50
2018-06-23T17:47:00.934Z,24.10
2018-06-23T17:49:29.500Z,23.10
2018-06-23T17:51:58.231Z,22.10
2018-06-23T17:54:27.120Z,21.40
2018-06-23T17:56:55.678Z,20.60
2018-06-23T17:59:24.292Z,20.30
2018-06-23T18:01:53.138Z,20.10
2018-06-23T18:04:21.731Z,20.00
2018-06-23T18:09:18.723Z,19.70
2018-06-23T18:11:47.426Z,19.70
2018-06-23T18:14:16.416Z,19.60
2018-06-23T18:16:45.016Z,19.30
2018-06-23T18:19:13.490Z,18.90
2018-06-23T18:21:42.019Z,18.70
2018-06-23T18:24:10.465Z,18.50
2018-06-23T18:26:38.993Z,18.30
2018-06-23T18:29:07.527Z,18.20
2018-06-23T18:31:36.058Z,18.30
2018-06-23T18:34:04.535Z,18.30
2018-06-23T18:36:33.043Z,18.30
2018-06-23T18:39:01.576Z,18.50
2018-06-23T18:41:30.011Z,18.60
2018-06-23T18:43:58.517Z,18.30
2018-06-23T18:46:27.063Z,18.10
2018-06-23T18:48:55.608Z,17.90
2018-06-23T18:51:24.089Z,17.90
2018-06-23T18:53:52.630Z,17.90
2018-06-23T18:56:21.784Z,17.80
2018-06-23T18:58:50.594Z,17.50
2018-06-23T19:01:19.155Z,17.30
2018-06-23T19:03:47.619Z,17.20
2018-06-23T19:06:16.140Z,17.10
2018-06-23T19:08:44.630Z,17.10
2018-06-23T19:11:13.119Z,17.00
2018-06-23T19:13:41.750Z,16.90
2018-06-23T19:16:10.265Z,16.60
2018-06-23T19:18:38.739Z,16.50
2018-06-23T19:21:07.427Z,16.30
2018-06-23T19:23:36.047Z,16.30
2018-06-23T19:26:04.701Z,16.20
2018-06-23T19:28:33.269Z,16.10
2018-06-23T19:31:01.755Z,16.00
2018-06-23T19:33:30.602Z,15.90
2018-06-23T19:35:59.127Z,15.60
2018-06-23T19:38:27.746Z,15.60
2018-06-23T19:43:24.787Z,15.50
2018-06-23T19:45:53.268Z,15.40
2018-06-23T19:48:21.722Z,15.40
2018-06-23T19:50:50.338Z,15.40
2018-06-23T19:53:18.743Z,15.40
2018-06-23T19:55:47.232Z,15.30
2018-06-23T19:58:15.763Z,15.30
2018-06-23T20:00:44.339Z,15.20
2018-06-23T20:03:12.904Z,15.10
2018-06-23T20:05:41.491Z,15.10
2018-06-23T20:08:10.008Z,15.10
2018-06-23T20:10:38.668Z,15.00
2018-06-23T20:13:07.175Z,14.80
2018-06-23T20:15:35.619Z,14.60
2018-06-23T20:18:04.127Z,14.60
2018-06-23T20:20:32.780Z,14.40
2018-06-23T20:23:01.236Z,14.20
2018-06-23T20:25:29.864Z,14.10
2018-06-23T20:27:58.450Z,14.00
2018-06-23T20:30:27.033Z,13.90
2018-06-23T20:32:55.512Z,13.80
2018-06-23T20:35:24.042Z,13.70
2018-06-23T20:37:52.840Z,13.50
2018-06-23T20:40:21.438Z,13.40
2018-06-23T20:42:49.981Z,13.20
2018-06-23T20:45:18.469Z,13.20
2018-06-23T20:47:46.919Z,13.00
2018-06-23T20:50:15.748Z,12.90
2018-06-23T20:52:44.209Z,12.80
2018-06-23T20:55:12.704Z,12.70
2018-06-23T20:57:41.477Z,12.60
2018-06-23T21:00:10.050Z,12.40
2018-06-23T21:02:38.642Z,12.50
2018-06-23T21:05:07.346Z,12.30
2018-06-23T21:07:36.122Z,12.20
2018-06-23T21:10:04.991Z,12.10
2018-06-23T21:12:33.514Z,12.00
2018-06-23T21:15:02.737Z,11.90
2018-06-23T21:17:31.264Z,11.70
2018-06-23T21:19:59.884Z,11.70
2018-06-23T21:22:28.662Z,11.50
2018-06-23T21:24:57.303Z,11.40
2018-06-23T21:27:25.844Z,11.40
2018-06-23T21:29:54.587Z,11.30
2018-06-23T21:32:23.133Z,11.20
2018-06-23T21:34:51.649Z,11.20
2018-06-23T21:37:20.436Z,11.10
2018-06-23T21:39:49.175Z,11.00
2018-06-23T21:42:17.723Z,11.00
2018-06-23T21:44:46.211Z,11.00
2018-06-23T21:47:14.756Z,10.80
2018-06-23T21:49:43.315Z,10.70
2018-06-23T21:52:11.873Z,10.60
2018-06-23T21:54:40.419Z,10.50
2018-06-23T21:57:08.846Z,10.40
2018-06-23T21:59:37.469Z,10.50
2018-06-23T22:02:05.952Z,10.40
2018-06-23T22:04:34.422Z,10.40
2018-06-23T22:07:03.258Z,10.30
2018-06-23T22:09:31.718Z,10.40
2018-06-23T22:12:00.611Z,10.30
2018-06-23T22:14:29.190Z,10.40
2018-06-23T22:16:57.855Z,10.20
2018-06-23T22:19:26.442Z,10.10
2018-06-23T22:21:55.031Z,10.10
2018-06-23T22:24:23.722Z,10.10
2018-06-23T22:26:52.296Z,10.30
2018-06-23T22:29:20.804Z,10.30
2018-06-23T22:31:49.704Z,10.30
2018-06-23T22:34:18.213Z,10.20
2018-06-23T22:36:46.669Z,10.20
2018-06-23T22:39:15.140Z,10.20
2018-06-23T22:41:43.688Z,10.30
2018-06-23T22:44:12.353Z,10.20
2018-06-23T22:46:40.838Z,10.10
2018-06-23T22:49:12.443Z,10.10
2018-06-23T22:51:40.975Z,10.10
2018-06-23T22:54:09.750Z,10.00
2018-06-23T22:56:39.085Z,9.80
2018-06-23T22:59:07.714Z,9.70
2018-06-23T23:01:36.212Z,9.50
2018-06-23T23:04:04.730Z,9.40
2018-06-23T23:06:33.352Z,9.30
2018-06-23T23:09:01.968Z,9.30
2018-06-23T23:11:30.495Z,9.30
2018-06-23T23:13:58.946Z,9.20
2018-06-23T23:16:27.566Z,9.20
2018-06-23T23:18:56.123Z,9.20
2018-06-23T23:21:24.556Z,9.10
2018-06-23T23:23:53.067Z,9.10
2018-06-23T23:26:21.498Z,8.90
2018-06-23T23:28:49.935Z,8.90
2018-06-23T23:31:18.388Z,8.70
2018-06-23T23:33:46.997Z,8.60
2018-06-23T23:36:15.532Z,8.60
2018-06-23T23:38:44.052Z,8.40
2018-06-23T23:41:13.209Z,8.30
2018-06-23T23:43:41.872Z,8.10
2018-06-23T23:46:10.558Z,8.10
2018-06-23T23:48:39.023Z,8.10
2018-06-23T23:51:07.552Z,8.10
2018-06-23T23:53:36.002Z,8.10
2018-06-23T23:56:04.463Z,8.20
2018-06-23T23:58:32.878Z,8.20
